createdAt,value
2022-12-23T00:01:07.625Z,12.30
2022-12-23T00:03:35.554Z,12.30
2022-12-23T00:06:09.655Z,12.30
2022-12-23T00:08:37.471Z,12.30
2022-12-23T00:11:09.804Z,12.30
2022-12-23T00:13:56.014Z,12.30
2022-12-23T00:16:23.626Z,12.30
2022-12-23T00:18:52.302Z,12.20
2022-12-23T00:21:19.873Z,12.20
2022-12-23T00:23:50.041Z,12.20
2022-12-23T00:26:23.392Z,12.20
2022-12-23T00:28:51.444Z,12.20
2022-12-23T00:31:19.955Z,12.20
2022-12-23T00:33:49.692Z,12.20
2022-12-23T00:36:21.707Z,12.10
2022-12-23T00:39:08.655Z,12.10
2022-12-23T00:41:54.850Z,12.10
2022-12-23T00:44:22.390Z,12.10
2022-12-23T00:46:50.276Z,12.10
2022-12-23T00:49:38.218Z,12.10
2022-12-23T00:52:07.869Z,12.10
2022-12-23T00:54:35.372Z,12.00
2022-12-23T00:57:03.034Z,12.10
2022-12-23T00:59:30.428Z,12.10
2022-12-23T01:02:16.429Z,12.00
2022-12-23T01:05:03.016Z,12.00
2022-12-23T01:07:30.707Z,12.00
2022-12-23T01:09:58.265Z,12.00
2022-12-23T01:12:25.864Z,12.00
2022-12-23T01:14:53.311Z,12.00
2022-12-23T01:17:21.192Z,11.90
2022-12-23T01:19:48.811Z,11.90
2022-12-23T01:22:16.488Z,11.90
2022-12-23T01:24:44.065Z,11.90
2022-12-23T01:27:11.499Z,11.90
2022-12-23T01:29:38.956Z,11.90
2022-12-23T01:32:06.485Z,11.90
2022-12-23T01:34:37.004Z,11.90
2022-12-23T01:37:06.307Z,11.80
2022-12-23T01:39:33.889Z,11.90
2022-12-23T01:42:20.159Z,11.80
2022-12-23T01:45:02.325Z,11.80
2022-12-23T01:47:53.658Z,11.80
2022-12-23T01:50:31.255Z,11.70
2022-12-23T01:53:25.677Z,11.70
2022-12-23T01:56:02.466Z,11.70
2022-12-23T01:58:38.091Z,11.70
2022-12-23T02:01:25.867Z,11.70
2022-12-23T02:03:57.569Z,11.70
2022-12-23T02:06:55.960Z,11.60
2022-12-23T02:09:26.893Z,11.70
2022-12-23T02:12:03.354Z,11.70
2022-12-23T02:15:18.878Z,11.60
2022-12-23T02:17:55.402Z,11.60
2022-12-23T02:20:44.947Z,11.60
2022-12-23T02:23:30.860Z,11.60
2022-12-23T02:25:58.236Z,11.60
2022-12-23T02:29:03.159Z,11.60
2022-12-23T02:31:48.176Z,11.60
2022-12-23T02:34:50.406Z,11.50
2022-12-23T02:37:35.949Z,11.60
2022-12-23T02:40:09.339Z,11.50
2022-12-23T02:43:00.909Z,11.50
2022-12-23T02:45:48.946Z,11.50
2022-12-23T02:48:24.339Z,11.50
2022-12-23T02:50:54.805Z,11.50
2022-12-23T02:53:31.900Z,11.50
2022-12-23T02:56:01.866Z,11.50
2022-12-23T02:58:37.343Z,11.50
2022-12-23T03:01:07.118Z,11.50
2022-12-23T03:03:36.772Z,11.40
2022-12-23T03:06:19.769Z,11.40
2022-12-23T03:08:49.692Z,11.40
2022-12-23T03:11:18.294Z,11.40
2022-12-23T03:14:04.285Z,11.40
2022-12-23T03:17:05.402Z,11.40
2022-12-23T03:19:32.870Z,11.40
2022-12-23T03:22:24.498Z,11.30
2022-12-23T03:25:05.543Z,11.30
2022-12-23T03:27:40.952Z,11.30
2022-12-23T03:30:12.758Z,11.30
2022-12-23T03:32:51.933Z,11.20
2022-12-23T03:35:24.333Z,11.20
2022-12-23T03:37:54.514Z,11.20
2022-12-23T03:40:27.299Z,11.20
2022-12-23T03:43:28.412Z,11.20
2022-12-23T03:46:00.150Z,11.20
2022-12-23T03:48:43.679Z,11.20
2022-12-23T03:51:19.157Z,11.20
2022-12-23T03:53:54.468Z,11.20
2022-12-23T03:56:45.481Z,11.20
2022-12-23T03:59:25.780Z,11.20
2022-12-23T04:02:02.336Z,11.20
2022-12-23T04:04:39.345Z,11.20
2022-12-23T04:07:13.696Z,11.10
2022-12-23T04:09:42.377Z,11.10
2022-12-23T04:12:10.126Z,11.10
2022-12-23T04:14:45.254Z,11.10
2022-12-23T04:17:12.744Z,11.20
2022-12-23T04:19:40.270Z,11.10
2022-12-23T04:22:07.749Z,11.20
2022-12-23T04:24:35.252Z,11.10
2022-12-23T04:27:02.712Z,11.10
2022-12-23T04:29:30.119Z,11.10
2022-12-23T04:31:57.808Z,11.10
2022-12-23T04:34:25.279Z,11.10
2022-12-23T04:36:52.782Z,11.10
2022-12-23T04:39:20.275Z,11.10
2022-12-23T04:41:48.515Z,11.10
2022-12-23T04:44:15.991Z,11.10
2022-12-23T04:46:43.555Z,11.10
2022-12-23T04:49:11.165Z,11.10
2022-12-23T04:51:38.749Z,11.10
2022-12-23T04:54:06.258Z,11.00
2022-12-23T04:56:33.756Z,11.10
2022-12-23T04:59:02.395Z,11.10
2022-12-23T05:01:30.113Z,11.10
2022-12-23T05:03:57.766Z,11.10
2022-12-23T05:06:25.234Z,11.10
2022-12-23T05:08:52.730Z,11.10
2022-12-23T05:11:20.186Z,11.10
2022-12-23T05:13:47.667Z,11.10
2022-12-23T05:16:15.223Z,11.10
2022-12-23T05:18:42.789Z,11.10
2022-12-23T05:21:10.403Z,11.10
2022-12-23T05:23:38.315Z,11.10
2022-12-23T05:26:05.784Z,11.10
2022-12-23T05:28:33.367Z,11.10
2022-12-23T05:31:02.932Z,11.10
2022-12-23T05:33:30.631Z,11.10
2022-12-23T05:35:58.817Z,11.10
2022-12-23T05:38:26.684Z,11.10
2022-12-23T05:40:54.326Z,11.10
2022-12-23T05:43:22.535Z,11.10
2022-12-23T05:45:51.087Z,11.00
2022-12-23T05:48:18.688Z,11.10
2022-12-23T05:50:49.864Z,11.10
2022-12-23T05:53:17.539Z,11.00
2022-12-23T05:55:45.007Z,11.10
2022-12-23T05:58:12.593Z,11.10
2022-12-23T06:00:40.100Z,11.10
2022-12-23T06:03:07.730Z,11.10
2022-12-23T06:05:37.731Z,11.10
2022-12-23T06:08:05.855Z,11.10
2022-12-23T06:10:33.237Z,11.10
2022-12-23T06:13:00.719Z,11.10
2022-12-23T06:15:28.325Z,11.10
2022-12-23T06:17:56.172Z,11.10
2022-12-23T06:20:23.575Z,11.10
2022-12-23T06:22:51.131Z,11.10
2022-12-23T06:25:18.595Z,11.10
2022-12-23T06:27:46.491Z,11.10
2022-12-23T06:30:14.706Z,11.10
2022-12-23T06:32:42.317Z,11.00
2022-12-23T06:35:10.075Z,11.00
2022-12-23T06:37:37.610Z,11.00
2022-12-23T06:40:06.089Z,11.00
2022-12-23T06:42:33.680Z,11.00
2022-12-23T06:45:01.137Z,11.00
2022-12-23T06:47:28.507Z,11.00
2022-12-23T06:49:55.989Z,10.90
2022-12-23T06:52:23.402Z,10.90
2022-12-23T06:54:50.916Z,10.90
2022-12-23T06:57:18.317Z,10.90
2022-12-23T06:59:46.663Z,10.90
2022-12-23T07:02:14.341Z,10.90
2022-12-23T07:04:41.834Z,10.90
2022-12-23T07:07:09.227Z,10.90
2022-12-23T07:09:36.684Z,10.90
2022-12-23T07:12:04.555Z,10.90
2022-12-23T07:14:32.059Z,10.80
2022-12-23T07:16:59.544Z,10.90
2022-12-23T07:19:26.958Z,10.80
2022-12-23T07:21:54.423Z,10.80
2022-12-23T07:24:21.819Z,10.80
2022-12-23T07:26:49.319Z,10.80
2022-12-23T07:29:16.742Z,10.80
2022-12-23T07:31:44.295Z,10.80
2022-12-23T07:34:11.891Z,10.80
2022-12-23T07:36:39.334Z,10.80
2022-12-23T07:39:06.813Z,10.80
2022-12-23T07:41:34.323Z,10.80
2022-12-23T07:44:08.784Z,10.80
2022-12-23T07:46:36.392Z,10.80
2022-12-23T07:49:04.041Z,10.80
2022-12-23T07:51:32.027Z,10.80
2022-12-23T07:53:59.615Z,10.80
2022-12-23T07:56:27.414Z,10.90
2022-12-23T07:58:55.482Z,10.80
2022-12-23T08:01:23.539Z,10.80
2022-12-23T08:03:51.214Z,10.80
2022-12-23T08:06:19.190Z,10.80
2022-12-23T08:08:46.724Z,10.80
2022-12-23T08:11:15.634Z,10.80
2022-12-23T08:13:45.041Z,10.80
2022-12-23T08:16:12.934Z,10.80
2022-12-23T08:18:41.773Z,10.80
2022-12-23T08:21:15.071Z,10.80
2022-12-23T08:23:43.670Z,10.90
2022-12-23T08:26:15.559Z,10.80
2022-12-23T08:28:44.325Z,10.80
2022-12-23T08:31:19.373Z,10.80
2022-12-23T08:33:49.977Z,10.80
2022-12-23T08:36:24.420Z,10.80
2022-12-23T08:38:54.015Z,10.80
2022-12-23T08:41:29.224Z,10.80
2022-12-23T08:43:57.197Z,10.80
2022-12-23T08:46:25.341Z,10.80
2022-12-23T08:48:53.518Z,10.80
2022-12-23T08:51:22.792Z,10.90
2022-12-23T08:53:56.253Z,10.80
2022-12-23T08:56:33.308Z,10.80
2022-12-23T08:59:01.639Z,10.80
2022-12-23T09:01:31.670Z,10.90
2022-12-23T09:04:01.746Z,10.90
2022-12-23T09:06:33.511Z,10.80
2022-12-23T09:09:01.189Z,10.90
2022-12-23T09:11:29.990Z,10.80
2022-12-23T09:14:00.010Z,10.80
2022-12-23T09:16:29.727Z,10.80
2022-12-23T09:19:00.784Z,10.80
2022-12-23T09:21:29.604Z,10.90
2022-12-23T09:23:57.216Z,10.90
2022-12-23T09:26:27.377Z,10.90
2022-12-23T09:28:56.053Z,10.90
2022-12-23T09:31:25.289Z,10.90
2022-12-23T09:33:55.843Z,10.90
2022-12-23T09:36:23.388Z,10.90
2022-12-23T09:38:55.394Z,10.90
2022-12-23T09:41:43.998Z,10.90
2022-12-23T09:44:21.684Z,10.90
2022-12-23T09:46:54.829Z,10.90
2022-12-23T09:49:23.687Z,10.90
2022-12-23T09:51:55.756Z,10.90
2022-12-23T09:54:28.989Z,10.90
2022-12-23T09:57:14.882Z,11.00
2022-12-23T09:59:54.250Z,11.00
2022-12-23T10:02:51.424Z,11.00
2022-12-23T10:05:22.029Z,11.10
2022-12-23T10:07:51.264Z,11.10
2022-12-23T10:10:30.502Z,11.10
2022-12-23T10:13:01.818Z,11.10
2022-12-23T10:15:37.787Z,11.20
2022-12-23T10:18:37.302Z,11.20
2022-12-23T10:21:26.154Z,11.20
2022-12-23T10:23:55.016Z,11.20
2022-12-23T10:26:31.911Z,11.20
2022-12-23T10:29:08.659Z,11.30
2022-12-23T10:32:07.954Z,11.30
2022-12-23T10:35:07.454Z,11.30
2022-12-23T10:37:41.830Z,11.30
2022-12-23T10:40:37.397Z,11.30
2022-12-23T10:43:24.599Z,11.40
2022-12-23T10:46:04.342Z,11.40
2022-12-23T10:48:38.173Z,11.50
2022-12-23T10:51:14.949Z,11.50
2022-12-23T10:53:49.776Z,11.50
2022-12-23T10:56:18.207Z,11.60
2022-12-23T10:58:49.961Z,11.60
2022-12-23T11:01:26.519Z,11.60
2022-12-23T11:04:13.118Z,11.70
2022-12-23T11:06:47.228Z,11.70
2022-12-23T11:09:22.853Z,11.80
2022-12-23T11:12:04.573Z,11.80
2022-12-23T11:14:54.217Z,11.80
2022-12-23T11:17:27.088Z,11.90
2022-12-23T11:20:15.319Z,11.90
2022-12-23T11:22:51.273Z,12.00
2022-12-23T11:25:34.174Z,12.00
2022-12-23T11:28:06.769Z,12.00
2022-12-23T11:31:08.173Z,12.10
2022-12-23T11:33:36.798Z,12.10
2022-12-23T11:36:13.203Z,12.20
2022-12-23T11:39:04.486Z,12.20
2022-12-23T11:41:36.285Z,12.30
2022-12-23T11:44:33.652Z,12.30
2022-12-23T11:47:22.168Z,12.40
2022-12-23T11:49:56.170Z,12.60
2022-12-23T11:52:30.110Z,12.80
2022-12-23T11:55:07.062Z,12.90
2022-12-23T11:57:46.517Z,13.10
2022-12-23T12:00:30.442Z,13.30
2022-12-23T12:03:03.568Z,13.40
2022-12-23T12:05:38.566Z,13.60
2022-12-23T12:08:12.266Z,13.70
2022-12-23T12:10:41.876Z,13.90
2022-12-23T12:13:29.758Z,14.00
2022-12-23T12:16:21.558Z,14.20
2022-12-23T12:18:55.411Z,14.20
2022-12-23T12:21:28.672Z,14.30
2022-12-23T12:24:18.203Z,14.40
2022-12-23T12:26:51.401Z,14.40
2022-12-23T12:29:22.846Z,14.60
2022-12-23T12:31:57.966Z,14.70
2022-12-23T12:34:45.761Z,14.80
2022-12-23T12:37:19.107Z,14.90
2022-12-23T12:39:54.354Z,15.00
2022-12-23T12:42:30.234Z,15.10
2022-12-23T12:45:27.394Z,15.30
2022-12-23T12:48:18.114Z,15.40
2022-12-23T12:50:55.190Z,15.60
2022-12-23T12:53:23.951Z,15.70
2022-12-23T12:56:02.711Z,15.80
2022-12-23T12:58:31.141Z,16.00
2022-12-23T13:01:17.621Z,16.20
2022-12-23T13:04:23.750Z,16.30
2022-12-23T13:07:00.064Z,16.40
2022-12-23T13:09:48.815Z,16.40
2022-12-23T13:12:38.979Z,16.50
2022-12-23T13:15:35.905Z,16.50
2022-12-23T13:18:20.730Z,16.40
2022-12-23T13:21:07.797Z,16.50
2022-12-23T13:23:44.401Z,16.50
2022-12-23T13:26:15.378Z,16.60
2022-12-23T13:29:02.212Z,16.60
2022-12-23T13:31:54.110Z,16.60
2022-12-23T13:34:56.539Z,16.50
2022-12-23T13:37:54.456Z,16.50
2022-12-23T13:40:38.295Z,16.40
2022-12-23T13:43:19.076Z,16.30
2022-12-23T13:45:48.780Z,16.30
2022-12-23T13:49:00.400Z,16.20
2022-12-23T13:51:38.851Z,16.10
2022-12-23T13:55:08.556Z,16.00
2022-12-23T13:57:39.001Z,15.90
2022-12-23T14:00:19.080Z,15.80
2022-12-23T14:03:22.412Z,15.70
2022-12-23T14:05:51.692Z,15.80
2022-12-23T14:08:19.132Z,15.80
2022-12-23T14:11:00.440Z,15.90
2022-12-23T14:13:36.579Z,16.00
2022-12-23T14:16:32.321Z,16.00
2022-12-23T14:19:07.004Z,16.10
2022-12-23T14:22:18.334Z,16.10
2022-12-23T14:25:04.043Z,16.10
2022-12-23T14:27:34.296Z,16.00
2022-12-23T14:30:06.532Z,16.00
2022-12-23T14:32:57.305Z,15.90
2022-12-23T14:35:24.881Z,15.90
2022-12-23T14:38:13.662Z,15.80
2022-12-23T14:40:50.680Z,15.70
2022-12-23T14:43:55.593Z,15.70
2022-12-23T14:46:35.464Z,15.60
2022-12-23T14:49:37.543Z,15.50
2022-12-23T14:51:51.136Z,15.40
2022-12-23T14:54:38.271Z,15.30
2022-12-23T14:57:19.185Z,15.30
2022-12-23T14:59:48.133Z,15.20
2022-12-23T15:02:18.401Z,15.10
2022-12-23T15:04:50.614Z,15.00
2022-12-23T15:07:36.466Z,15.00
2022-12-23T15:10:08.523Z,15.00
2022-12-23T15:12:38.749Z,14.90
2022-12-23T15:15:22.753Z,14.90
2022-12-23T15:18:02.275Z,14.80
2022-12-23T15:20:29.855Z,14.80
2022-12-23T15:23:01.610Z,14.70
2022-12-23T15:25:34.763Z,14.60
2022-12-23T15:28:03.685Z,14.60
2022-12-23T15:30:36.276Z,14.50
2022-12-23T15:33:34.838Z,14.40
2022-12-23T15:35:57.257Z,14.40
2022-12-23T15:38:30.581Z,14.30
2022-12-23T15:41:06.609Z,14.20
2022-12-23T15:43:41.436Z,14.10
2022-12-23T15:46:29.271Z,14.00
2022-12-23T15:48:58.379Z,14.00
2022-12-23T15:54:35.152Z,13.80
2022-12-23T15:57:04.451Z,13.70
2022-12-23T15:59:38.404Z,13.60
2022-12-23T16:05:28.568Z,13.60
2022-12-23T16:08:16.071Z,13.40
2022-12-23T16:11:05.514Z,13.40
2022-12-23T16:13:33.752Z,13.30
2022-12-23T16:16:29.219Z,13.30
2022-12-23T16:18:56.978Z,13.20
2022-12-23T16:21:30.147Z,13.10
2022-12-23T16:23:59.317Z,13.10
2022-12-23T16:26:27.108Z,13.00
2022-12-23T16:29:00.781Z,13.00
2022-12-23T16:31:28.607Z,12.90
2022-12-23T16:34:00.184Z,12.90
2022-12-23T16:36:27.709Z,12.80
2022-12-23T16:39:11.784Z,12.80
2022-12-23T16:41:39.488Z,12.80
2022-12-23T16:44:07.052Z,12.70
2022-12-23T16:46:39.698Z,12.70
2022-12-23T16:49:11.644Z,12.60
2022-12-23T16:51:40.461Z,12.60
2022-12-23T16:54:14.923Z,12.60
2022-12-23T16:56:43.453Z,12.60
2022-12-23T16:59:11.047Z,12.60
2022-12-23T17:01:42.197Z,12.60
2022-12-23T17:04:10.125Z,12.60
2022-12-23T17:06:38.447Z,12.60
2022-12-23T17:09:07.839Z,12.60
2022-12-23T17:11:42.153Z,12.60
2022-12-23T17:14:16.954Z,12.60
2022-12-23T17:16:45.925Z,12.60
2022-12-23T17:19:13.788Z,12.60
2022-12-23T17:21:43.872Z,12.60
2022-12-23T17:24:26.025Z,12.60
2022-12-23T17:26:55.381Z,12.60
2022-12-23T17:29:23.491Z,12.60
2022-12-23T17:31:52.408Z,12.60
2022-12-23T17:34:23.265Z,12.60
2022-12-23T17:36:51.636Z,12.60
2022-12-23T17:39:21.822Z,12.60
2022-12-23T17:41:50.167Z,12.60
2022-12-23T17:44:18.610Z,12.60
2022-12-23T17:46:46.791Z,12.60
2022-12-23T17:49:15.424Z,12.60
2022-12-23T17:51:43.372Z,12.60
2022-12-23T17:54:23.380Z,12.60
2022-12-23T17:56:51.223Z,12.50
2022-12-23T17:59:18.810Z,12.50
2022-12-23T18:01:46.698Z,12.50
2022-12-23T18:04:14.236Z,12.50
2022-12-23T18:06:41.719Z,12.40
2022-12-23T18:09:09.152Z,12.40
2022-12-23T18:11:44.190Z,12.40
2022-12-23T18:14:17.741Z,12.30
2022-12-23T18:16:45.483Z,12.30
2022-12-23T18:19:18.540Z,12.30
2022-12-23T18:21:46.364Z,12.30
2022-12-23T18:24:13.812Z,12.20
2022-12-23T18:26:41.385Z,12.30
2022-12-23T18:29:09.076Z,12.30
2022-12-23T18:31:39.049Z,12.20
2022-12-23T18:34:06.490Z,12.20
2022-12-23T18:36:34.096Z,12.30
2022-12-23T18:39:01.703Z,12.30
2022-12-23T18:41:29.156Z,12.30
2022-12-23T18:43:56.789Z,12.20
2022-12-23T18:46:24.298Z,12.20
2022-12-23T18:48:51.868Z,12.20
2022-12-23T18:51:21.359Z,12.20
2022-12-23T18:53:50.851Z,12.20
2022-12-23T18:56:21.122Z,12.20
2022-12-23T18:58:48.880Z,12.20
2022-12-23T19:01:18.640Z,12.20
2022-12-23T19:03:46.947Z,12.10
2022-12-23T19:06:15.457Z,12.10
2022-12-23T19:08:43.699Z,12.10
2022-12-23T19:11:17.493Z,12.00
2022-12-23T19:13:45.454Z,12.00
2022-12-23T19:16:18.772Z,12.00
2022-12-23T19:18:48.001Z,12.00
2022-12-23T19:21:17.556Z,11.90
2022-12-23T19:23:45.501Z,11.90
2022-12-23T19:26:15.249Z,11.90
2022-12-23T19:28:43.133Z,11.90
2022-12-23T19:31:15.865Z,11.80
2022-12-23T19:33:46.230Z,11.80
2022-12-23T19:36:16.503Z,11.80
2022-12-23T19:38:44.051Z,11.70
2022-12-23T19:41:11.603Z,11.70
2022-12-23T19:43:39.201Z,11.70
2022-12-23T19:46:09.209Z,11.70
2022-12-23T19:48:37.794Z,11.70
2022-12-23T19:51:10.995Z,11.60
2022-12-23T19:53:39.506Z,11.60
2022-12-23T19:56:11.878Z,11.60
2022-12-23T19:58:41.419Z,11.60
2022-12-23T20:01:13.636Z,11.60
2022-12-23T20:03:42.485Z,11.60
2022-12-23T20:06:40.137Z,11.50
2022-12-23T20:09:09.777Z,11.50
2022-12-23T20:11:40.413Z,11.50
2022-12-23T20:14:09.115Z,11.50
2022-12-23T20:16:38.253Z,11.50
2022-12-23T20:19:06.662Z,11.50
2022-12-23T20:21:35.560Z,11.50
2022-12-23T20:24:03.406Z,11.50
2022-12-23T20:26:30.927Z,11.50
2022-12-23T20:28:58.782Z,11.40
2022-12-23T20:31:31.818Z,11.40
2022-12-23T20:34:00.527Z,11.40
2022-12-23T20:36:30.986Z,11.40
2022-12-23T20:38:58.743Z,11.40
2022-12-23T20:41:28.346Z,11.30
2022-12-23T20:44:32.261Z,11.30
2022-12-23T20:46:43.764Z,11.30
2022-12-23T20:49:11.481Z,11.30
2022-12-23T20:51:38.957Z,11.30
2022-12-23T20:54:06.467Z,11.30
2022-12-23T20:56:33.873Z,11.20
2022-12-23T20:59:04.295Z,11.30
2022-12-23T21:01:38.059Z,11.20
2022-12-23T21:04:09.057Z,11.20
2022-12-23T21:06:36.793Z,11.20
2022-12-23T21:09:06.761Z,11.20
2022-12-23T21:11:36.840Z,11.20
2022-12-23T21:14:07.185Z,11.20
2022-12-23T21:16:36.983Z,11.20
2022-12-23T21:19:06.700Z,11.10
2022-12-23T21:21:34.216Z,11.20
2022-12-23T21:24:04.279Z,11.10
2022-12-23T21:26:33.939Z,11.10
2022-12-23T21:29:03.869Z,11.10
2022-12-23T21:31:33.760Z,11.10
2022-12-23T21:34:03.017Z,11.10
2022-12-23T21:36:33.194Z,11.10
2022-12-23T21:39:01.320Z,11.10
2022-12-23T21:41:34.063Z,11.10
2022-12-23T21:44:02.238Z,11.10
2022-12-23T21:46:30.233Z,11.00
2022-12-23T21:48:58.785Z,11.00
2022-12-23T21:51:34.997Z,11.00
2022-12-23T21:54:05.462Z,11.00
2022-12-23T21:56:32.999Z,11.00
2022-12-23T21:59:06.107Z,11.00
2022-12-23T22:01:34.161Z,10.90
2022-12-23T22:04:02.199Z,11.00
2022-12-23T22:06:32.606Z,11.00
2022-12-23T22:09:00.325Z,10.90
2022-12-23T22:11:30.948Z,10.90
2022-12-23T22:13:59.781Z,11.00
2022-12-23T22:16:29.511Z,10.90
2022-12-23T22:18:58.675Z,10.90
2022-12-23T22:21:27.908Z,11.00
2022-12-23T22:23:59.074Z,10.90
2022-12-23T22:26:28.605Z,11.00
2022-12-23T22:28:57.708Z,11.00
2022-12-23T22:31:34.669Z,10.90
2022-12-23T22:34:02.876Z,11.00
2022-12-23T22:36:31.971Z,11.00
2022-12-23T22:39:01.218Z,11.00
2022-12-23T22:41:30.024Z,11.00
2022-12-23T22:43:58.400Z,11.00
2022-12-23T22:46:26.793Z,11.10
2022-12-23T22:48:54.920Z,11.10
2022-12-23T22:51:25.945Z,11.10
2022-12-23T22:53:53.647Z,11.10
2022-12-23T22:56:22.962Z,11.10
2022-12-23T22:58:51.092Z,11.10
2022-12-23T23:01:32.037Z,11.10
2022-12-23T23:04:02.192Z,11.10
2022-12-23T23:06:37.488Z,11.20
2022-12-23T23:09:12.363Z,11.20
2022-12-23T23:11:40.312Z,11.20
2022-12-23T23:14:08.150Z,11.10
2022-12-23T23:16:35.889Z,11.20
2022-12-23T23:19:04.573Z,11.20
2022-12-23T23:21:32.692Z,11.20
2022-12-23T23:24:00.227Z,11.20
2022-12-23T23:26:27.772Z,11.20
2022-12-23T23:28:56.291Z,11.20
2022-12-23T23:31:42.328Z,11.20
2022-12-23T23:34:12.447Z,11.20
2022-12-23T23:36:40.366Z,11.10
2022-12-23T23:39:08.542Z,11.20
2022-12-23T23:41:36.045Z,11.10
2022-12-23T23:44:04.069Z,11.10
2022-12-23T23:46:31.781Z,11.10
2022-12-23T23:48:59.485Z,11.10
2022-12-23T23:51:27.025Z,11.10
2022-12-23T23:53:54.507Z,11.20
2022-12-23T23:56:25.887Z,11.10
2022-12-23T23:58:54.568Z,11.20
